createdAt,value
2022-12-26T00:02:19.719Z,95.63
2022-12-26T00:04:51.124Z,96.80
2022-12-26T00:07:20.581Z,95.85
2022-12-26T00:09:47.862Z,103.57
2022-12-26T00:12:15.159Z,90.38
2022-12-26T00:14:42.428Z,90.30
2022-12-26T00:17:09.760Z,98.93
2022-12-26T00:19:37.109Z,92.68
2022-12-26T00:22:04.396Z,99.35
2022-12-26T00:24:31.696Z,94.40
2022-12-26T00:26:59.011Z,97.57
2022-12-26T00:29:26.318Z,92.00
2022-12-26T00:31:53.782Z,110.35
2022-12-26T00:34:21.250Z,90.43
2022-12-26T00:36:48.509Z,89.57
2022-12-26T00:39:17.676Z,96.35
2022-12-26T00:41:44.980Z,79.30
2022-12-26T00:44:12.269Z,88.65
2022-12-26T00:46:39.616Z,87.32
2022-12-26T00:49:06.932Z,90.45
2022-12-26T00:51:34.177Z,92.80
2022-12-26T00:54:01.487Z,89.05
2022-12-26T00:56:28.783Z,74.03
2022-12-26T00:58:56.069Z,89.53
2022-12-26T01:01:24.056Z,85.97
2022-12-26T01:03:52.078Z,81.53
2022-12-26T01:06:19.634Z,85.15
2022-12-26T01:08:46.931Z,72.32
2022-12-26T01:11:15.569Z,75.22
2022-12-26T01:13:43.348Z,81.07
2022-12-26T01:16:11.129Z,76.18
2022-12-26T01:18:38.525Z,87.88
2022-12-26T01:21:07.150Z,77.00
2022-12-26T01:23:34.464Z,74.47
2022-12-26T01:26:18.728Z,75.53
2022-12-26T01:28:47.481Z,72.38
2022-12-26T01:31:14.826Z,77.32
2022-12-26T01:33:42.116Z,84.50
2022-12-26T01:36:09.637Z,83.72
2022-12-26T01:38:36.882Z,81.47
2022-12-26T01:41:22.544Z,75.90
2022-12-26T01:43:52.587Z,70.70
2022-12-26T01:46:21.108Z,76.25
2022-12-26T01:48:48.635Z,73.25
2022-12-26T01:51:17.059Z,67.13
2022-12-26T01:53:47.344Z,67.90
2022-12-26T01:56:17.451Z,67.00
2022-12-26T01:58:47.502Z,75.38
2022-12-26T02:01:15.124Z,78.78
2022-12-26T02:04:02.199Z,69.63
2022-12-26T02:06:29.608Z,84.60
2022-12-26T02:08:57.156Z,69.43
2022-12-26T02:11:29.053Z,76.20
2022-12-26T02:13:57.033Z,77.63
2022-12-26T02:16:25.788Z,80.32
2022-12-26T02:18:53.146Z,74.63
2022-12-26T02:21:32.787Z,72.72
2022-12-26T02:24:27.640Z,64.47
2022-12-26T02:27:06.946Z,74.65
2022-12-26T02:29:52.601Z,72.82
2022-12-26T02:32:22.972Z,59.40
2022-12-26T02:35:02.620Z,80.63
2022-12-26T02:37:43.365Z,73.40
2022-12-26T02:40:25.978Z,68.68
2022-12-26T02:43:04.243Z,70.78
2022-12-26T02:45:55.201Z,66.03
2022-12-26T02:48:51.391Z,68.75
2022-12-26T02:51:37.221Z,72.70
2022-12-26T02:54:45.582Z,66.85
2022-12-26T02:57:39.254Z,76.72
2022-12-26T03:00:25.360Z,63.40
2022-12-26T03:03:17.244Z,62.75
2022-12-26T03:06:38.038Z,59.50
2022-12-26T03:09:42.112Z,57.03
2022-12-26T03:12:45.410Z,58.25
2022-12-26T03:15:14.778Z,62.63
2022-12-26T03:17:43.987Z,63.42
2022-12-26T03:20:11.263Z,65.78
2022-12-26T03:23:06.362Z,64.38
2022-12-26T03:25:57.653Z,60.58
2022-12-26T03:28:25.684Z,69.47
2022-12-26T03:30:53.698Z,70.80
2022-12-26T03:33:47.654Z,66.70
2022-12-26T03:36:42.508Z,72.38
2022-12-26T03:39:12.856Z,76.72
2022-12-26T03:42:15.055Z,74.93
2022-12-26T03:45:01.225Z,77.00
2022-12-26T03:47:52.840Z,82.57
2022-12-26T03:51:03.231Z,82.13
2022-12-26T03:53:59.545Z,67.95
2022-12-26T03:56:53.109Z,76.60
2022-12-26T04:00:03.519Z,68.05
2022-12-26T04:02:50.657Z,72.45
2022-12-26T04:05:37.818Z,71.47
2022-12-26T04:08:25.885Z,72.55
2022-12-26T04:11:15.905Z,69.88
2022-12-26T04:14:12.292Z,76.78
2022-12-26T04:17:04.540Z,65.97
2022-12-26T04:19:43.136Z,67.55
2022-12-26T04:22:29.039Z,72.30
2022-12-26T04:25:49.991Z,62.75
2022-12-26T04:28:37.325Z,67.45
2022-12-26T04:31:30.349Z,61.83
2022-12-26T04:34:20.792Z,65.10
2022-12-26T04:37:14.372Z,72.15
2022-12-26T04:40:03.464Z,64.78
2022-12-26T04:42:50.872Z,61.00
2022-12-26T04:45:19.653Z,58.97
2022-12-26T04:48:05.071Z,68.43
2022-12-26T04:50:32.345Z,58.88
2022-12-26T04:52:59.636Z,55.15
2022-12-26T04:55:31.679Z,69.85
2022-12-26T04:57:59.395Z,62.97
2022-12-26T05:00:28.392Z,61.08
2022-12-26T05:03:19.108Z,60.53
2022-12-26T05:06:14.401Z,57.08
2022-12-26T05:09:01.423Z,57.75
2022-12-26T05:11:30.446Z,62.25
2022-12-26T05:13:58.834Z,54.13
2022-12-26T05:16:46.092Z,52.83
2022-12-26T05:19:33.357Z,58.40
2022-12-26T05:22:19.944Z,50.13
2022-12-26T05:25:06.292Z,55.17
2022-12-26T05:27:56.570Z,53.30
2022-12-26T05:30:24.345Z,61.47
2022-12-26T05:33:10.229Z,58.38
2022-12-26T05:35:37.674Z,62.13
2022-12-26T05:38:05.124Z,59.33
2022-12-26T05:40:32.783Z,60.55
2022-12-26T05:43:00.169Z,54.63
2022-12-26T05:45:27.476Z,59.50
2022-12-26T05:48:01.211Z,51.53
2022-12-26T05:50:28.903Z,60.53
2022-12-26T05:52:59.597Z,55.35
2022-12-26T05:55:27.527Z,54.22
2022-12-26T05:57:54.803Z,43.38
2022-12-26T06:00:22.552Z,51.72
2022-12-26T06:02:49.939Z,47.70
2022-12-26T06:05:17.358Z,50.65
2022-12-26T06:07:44.749Z,55.03
2022-12-26T06:10:12.285Z,46.50
2022-12-26T06:12:39.602Z,53.97
2022-12-26T06:15:07.438Z,48.08
2022-12-26T06:17:34.743Z,44.47
2022-12-26T06:20:02.095Z,55.30
2022-12-26T06:22:29.819Z,51.08
2022-12-26T06:24:57.100Z,53.55
2022-12-26T06:27:24.450Z,55.88
2022-12-26T06:29:51.703Z,47.22
2022-12-26T06:32:18.616Z,55.15
2022-12-26T06:34:45.873Z,54.00
2022-12-26T06:37:13.142Z,38.83
2022-12-26T06:39:40.431Z,50.63
2022-12-26T06:42:07.808Z,40.03
2022-12-26T06:44:34.692Z,41.80
2022-12-26T06:47:03.291Z,41.00
2022-12-26T06:49:32.906Z,39.90
2022-12-26T06:52:00.714Z,41.60
2022-12-26T06:54:27.956Z,39.08
2022-12-26T06:56:55.205Z,38.65
2022-12-26T06:59:22.944Z,43.42
2022-12-26T07:01:50.419Z,41.05
2022-12-26T07:04:17.886Z,37.25
2022-12-26T07:06:45.168Z,35.67
2022-12-26T07:09:14.635Z,34.03
2022-12-26T07:11:43.638Z,34.97
2022-12-26T07:14:10.969Z,32.97
2022-12-26T07:16:39.671Z,30.15
2022-12-26T07:19:07.283Z,26.95
2022-12-26T07:21:40.180Z,27.35
2022-12-26T07:24:09.078Z,27.80
2022-12-26T07:26:36.410Z,28.00
2022-12-26T07:29:03.703Z,22.63
2022-12-26T07:31:31.121Z,23.55
2022-12-26T07:33:58.525Z,26.67
2022-12-26T07:36:25.510Z,28.10
2022-12-26T07:38:52.813Z,27.23
2022-12-26T07:41:38.716Z,27.27
2022-12-26T07:44:06.264Z,27.40
2022-12-26T07:46:34.246Z,24.50
2022-12-26T07:49:01.972Z,24.45
2022-12-26T07:51:29.061Z,22.20
2022-12-26T07:53:56.006Z,20.52
2022-12-26T07:56:23.300Z,24.48
2022-12-26T07:58:51.115Z,20.48
2022-12-26T08:01:18.906Z,19.75
2022-12-26T08:03:48.393Z,22.38
2022-12-26T08:06:15.833Z,23.17
2022-12-26T08:08:50.196Z,25.00
2022-12-26T08:11:19.561Z,24.13
2022-12-26T08:13:47.029Z,22.25
2022-12-26T08:16:15.127Z,21.35
2022-12-26T08:18:42.591Z,22.08
2022-12-26T08:21:10.344Z,22.38
2022-12-26T08:23:37.444Z,20.42
2022-12-26T08:26:10.704Z,33.80
2022-12-26T08:28:38.202Z,22.42
2022-12-26T08:31:09.138Z,22.13
2022-12-26T08:33:36.878Z,20.80
2022-12-26T08:36:05.414Z,23.38
2022-12-26T08:38:34.100Z,24.80
2022-12-26T08:41:01.658Z,25.73
2022-12-26T08:43:52.840Z,23.30
2022-12-26T08:46:16.682Z,25.95
2022-12-26T08:48:44.350Z,25.98
2022-12-26T08:51:16.134Z,24.50
2022-12-26T08:53:43.537Z,23.02
2022-12-26T08:56:13.731Z,23.35
2022-12-26T08:58:41.423Z,22.23
2022-12-26T09:01:08.958Z,23.67
2022-12-26T09:03:36.363Z,29.75
2022-12-26T09:06:06.256Z,27.65
2022-12-26T09:08:35.060Z,23.13
2022-12-26T09:11:03.773Z,26.17
2022-12-26T09:13:31.402Z,24.40
2022-12-26T09:16:04.616Z,24.17
2022-12-26T09:18:31.930Z,29.70
2022-12-26T09:21:02.804Z,22.77
2022-12-26T09:23:30.403Z,23.80
2022-12-26T09:26:04.081Z,26.45
2022-12-26T09:28:31.384Z,27.42
2022-12-26T09:31:02.643Z,25.00
2022-12-26T09:33:30.858Z,24.38
2022-12-26T09:36:03.308Z,24.92
2022-12-26T09:38:31.248Z,23.05
2022-12-26T09:41:10.691Z,28.58
2022-12-26T09:44:02.666Z,25.58
2022-12-26T09:46:45.371Z,23.95
2022-12-26T09:49:23.689Z,26.15
2022-12-26T09:51:53.894Z,25.75
2022-12-26T09:54:32.324Z,25.75
2022-12-26T09:57:02.591Z,25.75
2022-12-26T09:59:32.854Z,27.40
2022-12-26T10:02:00.333Z,26.98
2022-12-26T10:04:30.434Z,28.92
2022-12-26T10:07:08.134Z,27.95
2022-12-26T10:09:44.865Z,28.45
2022-12-26T10:12:33.725Z,26.08
2022-12-26T10:15:07.436Z,30.75
2022-12-26T10:17:34.699Z,29.30
2022-12-26T10:20:01.969Z,28.08
2022-12-26T10:22:35.208Z,27.70
2022-12-26T10:25:03.821Z,27.23
2022-12-26T10:27:36.948Z,26.00
2022-12-26T10:30:06.423Z,29.42
2022-12-26T10:32:37.548Z,24.00
2022-12-26T10:35:21.086Z,23.42
2022-12-26T10:37:48.415Z,24.02
2022-12-26T10:40:18.735Z,27.15
2022-12-26T10:42:47.658Z,26.70
2022-12-26T10:45:19.223Z,27.63
2022-12-26T10:47:47.803Z,27.83
2022-12-26T10:50:20.306Z,30.40
2022-12-26T10:52:51.575Z,31.15
2022-12-26T10:55:28.857Z,30.08
2022-12-26T10:58:00.898Z,32.95
2022-12-26T11:00:28.859Z,27.50
2022-12-26T11:03:08.339Z,27.50
2022-12-26T11:06:06.473Z,32.25
2022-12-26T11:08:29.958Z,31.17
2022-12-26T11:11:03.565Z,28.13
2022-12-26T11:13:32.878Z,25.87
2022-12-26T11:16:00.224Z,29.30
2022-12-26T11:18:35.673Z,32.83
2022-12-26T11:21:12.903Z,28.50
2022-12-26T11:23:40.505Z,25.70
2022-12-26T11:26:19.564Z,27.65
2022-12-26T11:28:46.860Z,29.38
2022-12-26T11:31:28.236Z,27.33
2022-12-26T11:33:55.611Z,28.73
2022-12-26T11:36:24.640Z,31.17
2022-12-26T11:38:55.056Z,26.23
2022-12-26T11:41:40.358Z,27.02
2022-12-26T11:44:14.850Z,25.20
2022-12-26T11:46:43.867Z,24.58
2022-12-26T11:49:32.805Z,26.52
2022-12-26T11:52:01.945Z,21.77
2022-12-26T11:54:31.090Z,21.23
2022-12-26T11:57:18.820Z,21.08
2022-12-26T11:59:46.653Z,19.27
2022-12-26T12:02:20.058Z,20.00
2022-12-26T12:04:47.631Z,19.70
2022-12-26T12:07:20.855Z,23.55
2022-12-26T12:09:59.124Z,21.50
2022-12-26T12:12:36.217Z,33.00
2022-12-26T12:15:20.672Z,20.42
2022-12-26T12:18:06.691Z,13.82
2022-12-26T12:20:47.394Z,11.68
2022-12-26T12:23:40.906Z,14.50
2022-12-26T12:26:33.014Z,52.65
2022-12-26T12:29:35.391Z,24.95
2022-12-26T12:32:18.640Z,17.83
2022-12-26T12:34:54.550Z,15.95
2022-12-26T12:37:59.019Z,14.18
2022-12-26T12:40:26.418Z,12.73
2022-12-26T12:43:16.949Z,12.27
2022-12-26T12:45:50.330Z,5.75
2022-12-26T12:48:26.829Z,7.57
2022-12-26T12:50:57.099Z,7.00
2022-12-26T12:53:24.342Z,5.97
2022-12-26T12:55:57.659Z,6.80
2022-12-26T12:58:27.721Z,5.13
2022-12-26T13:00:56.999Z,7.10
2022-12-26T13:03:27.074Z,4.32
2022-12-26T13:05:54.383Z,3.95
2022-12-26T13:08:24.563Z,3.22
2022-12-26T13:10:54.189Z,3.35
2022-12-26T13:13:24.689Z,4.22
2022-12-26T13:15:54.481Z,4.07
2022-12-26T13:18:23.610Z,3.20
2022-12-26T13:20:53.359Z,3.33
2022-12-26T13:23:46.792Z,3.28
2022-12-26T13:26:18.214Z,5.43
2022-12-26T13:29:00.163Z,3.88
2022-12-26T13:31:33.113Z,6.00
2022-12-26T13:34:00.725Z,4.13
2022-12-26T13:36:35.823Z,5.35
2022-12-26T13:39:03.103Z,5.35
2022-12-26T13:41:50.006Z,6.38
2022-12-26T13:44:20.152Z,5.03
2022-12-26T13:46:47.713Z,5.78
2022-12-26T13:49:27.358Z,6.63
2022-12-26T13:51:56.604Z,6.63
2022-12-26T13:54:25.093Z,7.55
2022-12-26T13:57:24.859Z,15.38
2022-12-26T14:00:02.526Z,8.05
2022-12-26T14:03:16.234Z,19.45
2022-12-26T14:05:41.732Z,11.63
2022-12-26T14:08:21.253Z,7.82
2022-12-26T14:10:48.535Z,7.72
2022-12-26T14:13:21.961Z,7.38
2022-12-26T14:16:15.646Z,7.72
2022-12-26T14:19:35.459Z,6.90
2022-12-26T14:22:16.600Z,8.55
2022-12-26T14:24:43.888Z,7.35
2022-12-26T14:27:47.347Z,7.40
2022-12-26T14:30:23.984Z,7.53
2022-12-26T14:33:11.540Z,8.30
2022-12-26T14:35:45.217Z,6.00
2022-12-26T14:38:18.252Z,5.60
2022-12-26T14:41:00.514Z,5.65
2022-12-26T14:43:32.669Z,5.10
2022-12-26T14:46:00.571Z,9.20
2022-12-26T14:48:27.878Z,5.38
2022-12-26T14:50:56.152Z,5.25
2022-12-26T14:53:29.113Z,4.88
2022-12-26T14:56:07.955Z,6.55
2022-12-26T14:58:44.907Z,6.03
2022-12-26T15:01:20.889Z,6.47
2022-12-26T15:04:08.860Z,9.98
2022-12-26T15:06:45.008Z,10.35
2022-12-26T15:09:28.613Z,9.93
2022-12-26T15:12:05.126Z,10.70
2022-12-26T15:15:02.385Z,9.90
2022-12-26T15:17:44.300Z,11.18
2022-12-26T15:20:32.944Z,11.65
2022-12-26T15:23:17.962Z,8.75
2022-12-26T15:26:20.196Z,6.22
2022-12-26T15:29:08.243Z,6.95
2022-12-26T15:31:42.184Z,7.13
2022-12-26T15:34:12.169Z,6.03
2022-12-26T15:37:01.195Z,7.70
2022-12-26T15:39:58.634Z,6.53
2022-12-26T15:42:55.809Z,6.28
2022-12-26T15:45:28.185Z,7.10
2022-12-26T15:48:14.282Z,7.88
2022-12-26T15:51:01.500Z,9.30
2022-12-26T15:54:00.715Z,8.60
2022-12-26T15:56:55.663Z,8.25
2022-12-26T15:59:34.513Z,9.43
2022-12-26T16:02:01.817Z,9.60
2022-12-26T16:04:39.888Z,7.65
2022-12-26T16:07:17.287Z,8.50
2022-12-26T16:09:49.934Z,7.40
2022-12-26T16:12:21.860Z,8.07
2022-12-26T16:14:49.422Z,8.25
2022-12-26T16:17:16.332Z,7.60
2022-12-26T16:19:48.658Z,8.80
2022-12-26T16:22:47.077Z,10.48
2022-12-26T16:25:14.127Z,8.90
2022-12-26T16:27:41.798Z,8.48
2022-12-26T16:30:19.910Z,8.63
2022-12-26T16:32:47.179Z,9.57
2022-12-26T16:35:22.253Z,8.80
2022-12-26T16:37:51.389Z,8.30
2022-12-26T16:40:40.801Z,11.32
2022-12-26T16:43:31.009Z,7.82
2022-12-26T16:46:03.777Z,7.95
2022-12-26T16:48:33.318Z,9.30
2022-12-26T16:51:21.784Z,7.85
2022-12-26T16:53:48.785Z,8.77
2022-12-26T16:56:42.098Z,7.05
2022-12-26T16:59:24.223Z,7.28
2022-12-26T17:01:55.382Z,7.68
2022-12-26T17:04:25.155Z,7.10
2022-12-26T17:07:00.334Z,7.40
2022-12-26T17:09:29.818Z,9.32
2022-12-26T17:11:59.156Z,6.50
2022-12-26T17:14:31.922Z,7.40
2022-12-26T17:17:00.978Z,7.45
2022-12-26T17:19:33.534Z,6.03
2022-12-26T17:22:15.449Z,5.75
2022-12-26T17:24:43.405Z,7.50
2022-12-26T17:27:23.581Z,7.68
2022-12-26T17:30:01.314Z,8.98
2022-12-26T17:32:39.767Z,7.45
2022-12-26T17:35:28.655Z,8.40
2022-12-26T17:38:00.119Z,7.22
2022-12-26T17:40:39.131Z,8.25
2022-12-26T17:43:25.092Z,5.65
2022-12-26T17:45:52.131Z,7.35
2022-12-26T17:48:19.037Z,8.23
2022-12-26T17:50:49.400Z,7.72
2022-12-26T17:53:22.413Z,8.60
2022-12-26T17:55:51.161Z,7.22
2022-12-26T17:58:18.127Z,9.43
2022-12-26T18:00:45.546Z,7.28
2022-12-26T18:03:12.663Z,7.88
2022-12-26T18:05:40.338Z,6.85
2022-12-26T18:08:08.089Z,9.77
2022-12-26T18:10:37.333Z,7.72
2022-12-26T18:13:06.597Z,8.15
2022-12-26T18:15:33.488Z,12.10
2022-12-26T18:18:00.497Z,9.77
2022-12-26T18:20:29.857Z,11.63
2022-12-26T18:22:57.584Z,10.77
2022-12-26T18:25:27.173Z,9.68
2022-12-26T18:27:54.164Z,9.55
2022-12-26T18:30:24.184Z,10.32
2022-12-26T18:32:53.155Z,12.50
2022-12-26T18:35:21.155Z,11.18
2022-12-26T18:37:50.294Z,10.60
2022-12-26T18:40:23.018Z,11.77
2022-12-26T18:42:50.050Z,14.80
2022-12-26T18:45:17.061Z,13.98
2022-12-26T18:47:44.035Z,17.10
2022-12-26T18:50:13.195Z,11.88
2022-12-26T18:52:40.113Z,13.32
2022-12-26T18:55:07.525Z,11.63
2022-12-26T18:57:34.648Z,17.02
2022-12-26T19:00:02.275Z,14.30
2022-12-26T19:02:29.247Z,13.55
2022-12-26T19:04:56.176Z,16.10
2022-12-26T19:07:23.169Z,13.32
2022-12-26T19:09:55.736Z,13.73
2022-12-26T19:12:23.737Z,13.23
2022-12-26T19:14:51.105Z,14.60
2022-12-26T19:17:18.369Z,15.73
2022-12-26T19:19:45.365Z,16.73
2022-12-26T19:22:12.367Z,16.30
2022-12-26T19:24:39.315Z,13.50
2022-12-26T19:27:06.263Z,14.90
2022-12-26T19:29:33.211Z,14.23
2022-12-26T19:32:00.306Z,14.43
2022-12-26T19:34:28.985Z,11.75
2022-12-26T19:36:56.040Z,14.35
2022-12-26T19:39:23.865Z,12.55
2022-12-26T19:41:50.913Z,12.35
2022-12-26T19:44:17.851Z,12.45
2022-12-26T19:46:44.800Z,13.13
2022-12-26T19:49:11.848Z,13.00
2022-12-26T19:51:38.881Z,15.45
2022-12-26T19:54:07.042Z,16.48
2022-12-26T19:56:34.269Z,12.45
2022-12-26T19:59:01.967Z,18.55
2022-12-26T20:01:31.460Z,13.73
2022-12-26T20:04:01.135Z,15.48
2022-12-26T20:06:30.390Z,13.60
2022-12-26T20:09:00.616Z,14.95
2022-12-26T20:11:36.973Z,13.10
2022-12-26T20:14:06.440Z,15.85
2022-12-26T20:19:22.852Z,14.82
2022-12-26T20:21:50.352Z,13.85
2022-12-26T20:24:18.765Z,18.80
2022-12-26T20:26:45.776Z,17.00
2022-12-26T20:29:13.322Z,15.48
2022-12-26T20:31:40.759Z,16.95
2022-12-26T20:34:07.636Z,17.50
2022-12-26T20:36:37.316Z,16.58
2022-12-26T20:39:07.469Z,17.50
2022-12-26T20:41:35.130Z,19.85
2022-12-26T20:44:02.325Z,22.10
2022-12-26T20:46:34.473Z,21.65
2022-12-26T20:49:02.355Z,23.50
2022-12-26T20:51:36.902Z,19.25
2022-12-26T20:54:04.809Z,23.25
2022-12-26T20:56:31.858Z,26.92
2022-12-26T20:58:59.783Z,23.35
2022-12-26T21:01:29.689Z,26.35
2022-12-26T21:03:57.302Z,18.95
2022-12-26T21:06:28.174Z,24.70
2022-12-26T21:08:56.588Z,19.50
2022-12-26T21:11:31.024Z,23.05
2022-12-26T21:14:01.127Z,22.88
2022-12-26T21:16:32.021Z,15.95
2022-12-26T21:18:59.559Z,21.73
2022-12-26T21:21:30.146Z,10.95
2022-12-26T21:23:59.481Z,17.25
2022-12-26T21:26:27.021Z,6.43
2022-12-26T21:28:59.884Z,7.13
2022-12-26T21:31:28.477Z,6.85
2022-12-26T21:33:56.896Z,3.55
2022-12-26T21:36:24.356Z,3.65
2022-12-26T21:38:52.855Z,12.20
2022-12-26T21:41:20.694Z,3.67
2022-12-26T21:43:48.063Z,3.10
2022-12-26T21:46:19.437Z,2.65
2022-12-26T21:48:50.404Z,3.25
2022-12-26T21:51:19.172Z,3.67
2022-12-26T21:53:46.885Z,4.25
2022-12-26T21:56:15.707Z,5.00
2022-12-26T21:59:02.893Z,3.47
2022-12-26T22:01:30.912Z,9.63
2022-12-26T22:04:16.313Z,12.52
2022-12-26T22:06:43.622Z,5.72
2022-12-26T22:09:10.796Z,4.95
2022-12-26T22:11:56.685Z,3.20
2022-12-26T22:14:23.700Z,3.45
2022-12-26T22:16:55.350Z,3.00
2022-12-26T22:19:26.670Z,6.25
2022-12-26T22:21:54.988Z,2.42
2022-12-26T22:24:22.359Z,4.05
2022-12-26T22:26:49.740Z,2.67
2022-12-26T22:29:16.938Z,11.55
2022-12-26T22:31:43.834Z,3.80
2022-12-26T22:34:13.281Z,4.90
2022-12-26T22:36:41.116Z,6.47
2022-12-26T22:39:10.031Z,5.78
2022-12-26T22:41:38.127Z,4.68
2022-12-26T22:44:05.266Z,3.75
2022-12-26T22:46:32.267Z,4.72
2022-12-26T22:48:59.182Z,3.35
2022-12-26T22:51:26.658Z,3.00
2022-12-26T22:53:58.568Z,4.18
2022-12-26T22:56:26.146Z,5.35
2022-12-26T22:59:00.598Z,7.18
2022-12-26T23:01:28.262Z,5.45
2022-12-26T23:03:55.524Z,6.35
2022-12-26T23:06:23.881Z,4.97
2022-12-26T23:08:54.287Z,3.63
2022-12-26T23:11:22.451Z,4.07
2022-12-26T23:13:50.195Z,5.47
2022-12-26T23:16:25.987Z,4.15
2022-12-26T23:19:15.743Z,2.78
2022-12-26T23:21:43.582Z,4.05
2022-12-26T23:24:26.120Z,9.73
2022-12-26T23:26:55.863Z,6.88
2022-12-26T23:29:42.655Z,5.97
2022-12-26T23:32:10.970Z,6.43
2022-12-26T23:34:38.039Z,6.88
2022-12-26T23:37:05.047Z,4.60
2022-12-26T23:39:32.004Z,4.97
2022-12-26T23:41:58.908Z,5.20
2022-12-26T23:44:25.877Z,9.32
2022-12-26T23:46:52.749Z,4.60
2022-12-26T23:49:19.695Z,8.23
2022-12-26T23:51:46.569Z,7.28
2022-12-26T23:54:13.584Z,12.70
2022-12-26T23:56:40.555Z,6.30
2022-12-26T23:59:07.619Z,7.32
